Time,TemperatureF,DewpointF,PressureIn,WindDirection,WindDirectionDegrees,WindSpeedMPH,WindSpeedGustMPH,Humidity,HourlyPrecipIn,Conditions,Clouds,dailyrainin,SoftwareType,DateUTC
2013-11-18 00:01:00,48.0,30.8,30.02,South,175,0.0,0.0,51,0.00,,,0.00,VWS V14.01,2013-11-18 08:01:00,
2013-11-18 00:06:00,48.0,30.8,30.02,South,175,0.0,0.0,51,0.00,,,0.00,VWS V14.01,2013-11-18 08:06:00,
2013-11-18 00:11:00,48.0,30.8,30.02,South,175,0.0,0.0,51,0.00,,,0.00,VWS V14.01,2013-11-18 08:11:00,
2013-11-18 00:16:00,48.0,30.8,30.02,South,175,0.0,0.0,51,0.00,,,0.00,VWS V14.01,2013-11-18 08:16:00,
2013-11-18 00:21:00,48.0,30.8,30.02,South,175,0.0,0.0,51,0.00,,,0.00,VWS V14.01,2013-11-18 08:21:00,
2013-11-18 00:26:00,47.8,30.6,30.02,South,175,0.0,0.0,51,0.00,,,0.00,VWS V14.01,2013-11-18 08:26:00,
2013-11-18 00:31:00,48.0,31.2,30.02,South,175,0.0,0.0,52,0.00,,,0.00,VWS V14.01,2013-11-18 08:31:00,
2013-11-18 00:36:00,48.0,31.2,30.02,South,176,0.0,0.0,52,0.00,,,0.00,VWS V14.01,2013-11-18 08:36:00,
2013-11-18 00:41:00,48.0,31.2,30.02,South,175,0.0,0.0,52,0.00,,,0.00,VWS V14.01,2013-11-18 08:41:00,
2013-11-18 00:46:00,48.0,31.2,30.02,South,175,0.0,0.0,52,0.00,,,0.00,VWS V14.01,2013-11-18 08:46:00,
2013-11-18 00:51:00,48.0,31.2,30.02,South,175,0.0,0.0,52,0.00,,,0.00,VWS V14.01,2013-11-18 08:51:00,
2013-11-18 00:56:00,48.2,31.4,30.02,South,175,0.0,0.0,52,0.00,,,0.00,VWS V14.01,2013-11-18 08:56:00,
2013-11-18 01:01:00,48.0,31.2,30.02,South,175,0.0,0.0,52,0.00,,,0.00,VWS V14.01,2013-11-18 09:01:00,
2013-11-18 01:06:00,48.0,31.2,30.02,South,175,0.0,0.0,52,0.00,,,0.00,VWS V14.01,2013-11-18 09:06:00,
2013-11-18 01:11:00,48.0,31.2,30.02,South,175,0.0,0.0,52,0.00,,,0.00,VWS V14.01,2013-11-18 09:11:00,
2013-11-18 01:16:00,48.0,31.2,30.02,South,175,0.0,0.0,52,0.00,,,0.00,VWS V14.01,2013-11-18 09:16:00,
2013-11-18 01:21:00,48.0,31.7,30.02,South,175,0.0,0.0,53,0.00,,,0.00,VWS V14.01,2013-11-18 09:21:00,
2013-11-18 01:26:00,47.8,31.5,30.02,South,175,0.0,0.0,53,0.00,,,0.00,VWS V14.01,2013-11-18 09:26:00,
2013-11-18 01:31:00,47.7,30.9,30.02,South,175,0.0,0.0,52,0.00,,,0.00,VWS V14.01,2013-11-18 09:31:00,
2013-11-18 01:37:00,47.5,31.2,30.02,South,175,0.0,0.0,53,0.00,,,0.00,VWS V14.01,2013-11-18 09:37:00,
2013-11-18 01:41:00,47.5,31.2,30.02,South,175,0.0,0.0,53,0.00,,,0.00,VWS V14.01,2013-11-18 09:41:00,
2013-11-18 01:46:00,47.7,31.4,30.02,South,175,0.0,0.0,53,0.00,,,0.00,VWS V14.01,2013-11-18 09:46:00,
2013-11-18 01:52:00,47.7,31.4,30.02,South,175,0.0,0.0,53,0.00,,,0.00,VWS V14.01,2013-11-18 09:52:00,
2013-11-18 01:57:00,47.8,31.5,30.02,South,175,0.0,0.0,53,0.00,,,0.00,VWS V14.01,2013-11-18 09:57:00,
2013-11-18 02:02:00,48.0,32.2,30.02,SSW,195,0.0,0.0,54,0.00,,,0.00,VWS V14.01,2013-11-18 10:02:00,
2013-11-18 02:07:00,48.2,31.9,30.02,SSW,200,0.0,0.0,53,0.00,,,0.00,VWS V14.01,2013-11-18 10:07:00,
2013-11-18 02:12:00,48.2,31.9,30.02,SSW,200,0.0,0.0,53,0.00,,,0.00,VWS V14.01,2013-11-18 10:12:00,
2013-11-18 02:17:00,48.2,31.9,30.02,West,275,0.0,2.2,53,0.00,,,0.00,VWS V14.01,2013-11-18 10:17:00,
2013-11-18 02:22:00,48.2,31.9,30.02,West,275,0.0,0.0,53,0.00,,,0.00,VWS V14.01,2013-11-18 10:22:00,
2013-11-18 02:27:00,48.2,31.9,30.02,SSW,212,0.0,0.0,53,0.00,,,0.00,VWS V14.01,2013-11-18 10:27:00,
2013-11-18 02:32:00,48.4,32.0,30.02,SW,219,0.0,2.2,53,0.00,,,0.00,VWS V14.01,2013-11-18 10:32:00,
2013-11-18 02:37:00,48.4,32.0,30.02,SW,219,0.0,0.0,53,0.00,,,0.00,VWS V14.01,2013-11-18 10:37:00,
2013-11-18 02:42:00,48.0,32.2,30.02,SW,219,0.0,0.0,54,0.00,,,0.00,VWS V14.01,2013-11-18 10:42:00,
2013-11-18 02:47:00,47.8,32.0,30.02,SW,219,0.0,0.0,54,0.00,,,0.00,VWS V14.01,2013-11-18 10:47:00,
2013-11-18 02:52:00,47.8,32.0,30.02,SW,219,0.0,0.0,54,0.00,,,0.00,VWS V14.01,2013-11-18 10:52:00,
2013-11-18 02:57:00,47.8,32.0,30.02,SW,219,0.0,0.0,54,0.00,,,0.00,VWS V14.01,2013-11-18 10:57:00,
2013-11-18 03:02:00,47.8,32.5,30.02,SW,219,0.0,0.0,55,0.00,,,0.00,VWS V14.01,2013-11-18 11:02:00,
2013-11-18 03:07:00,47.7,32.3,30.02,SW,219,0.0,0.0,55,0.00,,,0.00,VWS V14.01,2013-11-18 11:07:00,
2013-11-18 03:12:00,47.7,32.3,30.02,SW,219,0.0,0.0,55,0.00,,,0.00,VWS V14.01,2013-11-18 11:12:00,
2013-11-18 03:17:00,47.7,32.3,30.02,SW,219,0.0,0.0,55,0.00,,,0.00,VWS V14.01,2013-11-18 11:17:00,
2013-11-18 03:22:00,47.8,32.5,30.02,SW,219,0.0,0.0,55,0.00,,,0.00,VWS V14.01,2013-11-18 11:22:00,
2013-11-18 03:27:00,48.0,32.6,30.02,SW,219,0.0,0.0,55,0.00,,,0.00,VWS V14.01,2013-11-18 11:27:00,
2013-11-18 03:32:00,48.0,33.1,30.02,SW,219,2.2,2.2,56,0.00,,,0.00,VWS V14.01,2013-11-18 11:32:00,
2013-11-18 03:37:00,48.2,32.8,30.02,SSW,211,3.1,3.1,55,0.00,,,0.00,VWS V14.01,2013-11-18 11:37:00,
2013-11-18 03:42:00,48.2,32.8,30.02,SSW,212,2.2,2.2,55,0.00,,,0.00,VWS V14.01,2013-11-18 11:42:00,
2013-11-18 03:47:00,48.2,32.8,30.02,SSW,212,0.0,0.0,55,0.00,,,0.00,VWS V14.01,2013-11-18 11:47:00,
2013-11-18 03:52:00,48.2,33.3,30.05,SSW,212,0.0,0.0,56,0.00,,,0.00,VWS V14.01,2013-11-18 11:52:00,
2013-11-18 03:57:00,48.4,33.4,30.05,SSW,208,0.0,0.0,56,0.00,,,0.00,VWS V14.01,2013-11-18 11:57:00,
2013-11-18 04:02:00,48.4,33.4,30.05,SSW,208,0.0,0.0,56,0.00,,,0.00,VWS V14.01,2013-11-18 12:02:00,
2013-11-18 04:07:00,48.4,33.4,30.05,SSW,208,0.0,0.0,56,0.00,,,0.00,VWS V14.01,2013-11-18 12:07:00,
2013-11-18 04:12:00,48.4,33.4,30.05,South,177,0.0,0.0,56,0.00,,,0.00,VWS V14.01,2013-11-18 12:12:00,
2013-11-18 04:17:00,48.2,33.7,30.05,South,177,2.2,2.2,57,0.00,,,0.00,VWS V14.01,2013-11-18 12:17:00,
2013-11-18 04:22:00,48.2,33.7,30.05,South,177,0.0,0.0,57,0.00,,,0.00,VWS V14.01,2013-11-18 12:22:00,
2013-11-18 04:27:00,48.2,33.7,30.05,South,177,0.0,0.0,57,0.00,,,0.00,VWS V14.01,2013-11-18 12:27:00,
2013-11-18 04:32:00,48.0,33.5,30.05,South,177,0.0,0.0,57,0.00,,,0.00,VWS V14.01,2013-11-18 12:32:00,
2013-11-18 04:37:00,48.0,34.0,30.05,South,177,0.0,0.0,58,0.00,,,0.00,VWS V14.01,2013-11-18 12:37:00,
2013-11-18 04:42:00,48.0,34.0,30.05,South,177,0.0,0.0,58,0.00,,,0.00,VWS V14.01,2013-11-18 12:42:00,
2013-11-18 04:47:00,48.0,34.0,30.05,South,177,0.0,0.0,58,0.00,,,0.00,VWS V14.01,2013-11-18 12:47:00,
2013-11-18 04:52:00,47.8,33.8,30.05,South,177,0.0,0.0,58,0.00,,,0.00,VWS V14.01,2013-11-18 12:52:00,
2013-11-18 04:57:00,47.8,33.8,30.05,South,176,0.0,0.0,58,0.00,,,0.00,VWS V14.01,2013-11-18 12:57:00,
2013-11-18 05:02:00,47.8,33.8,30.05,South,176,0.0,0.0,58,0.00,,,0.00,VWS V14.01,2013-11-18 13:02:00,
2013-11-18 05:07:00,47.8,34.2,30.05,South,176,0.0,0.0,59,0.00,,,0.00,VWS V14.01,2013-11-18 13:07:00,
2013-11-18 05:12:00,47.8,34.2,30.05,South,176,0.0,0.0,59,0.00,,,0.00,VWS V14.01,2013-11-18 13:12:00,
2013-11-18 05:17:00,47.8,34.2,30.05,South,176,0.0,0.0,59,0.00,,,0.00,VWS V14.01,2013-11-18 13:17:00,
2013-11-18 05:22:00,47.8,34.2,30.05,South,176,0.0,0.0,59,0.00,,,0.00,VWS V14.01,2013-11-18 13:22:00,
2013-11-18 05:27:00,47.8,34.2,30.05,South,176,0.0,0.0,59,0.00,,,0.00,VWS V14.01,2013-11-18 13:27:00,
2013-11-18 05:32:00,47.7,34.0,30.05,South,176,0.0,0.0,59,0.00,,,0.00,VWS V14.01,2013-11-18 13:32:00,
2013-11-18 05:37:00,47.5,33.9,30.02,South,176,0.0,0.0,59,0.00,,,0.00,VWS V14.01,2013-11-18 13:37:00,
2013-11-18 05:42:00,47.5,33.9,30.02,South,176,0.0,0.0,59,0.00,,,0.00,VWS V14.01,2013-11-18 13:42:00,
2013-11-18 05:47:00,47.5,34.3,30.02,South,176,0.0,0.0,60,0.00,,,0.00,VWS V14.01,2013-11-18 13:47:00,
2013-11-18 05:52:00,47.3,33.7,30.05,South,176,0.0,0.0,59,0.00,,,0.00,VWS V14.01,2013-11-18 13:52:00,
2013-11-18 05:57:00,47.3,34.1,30.05,South,176,0.0,0.0,60,0.00,,,0.00,VWS V14.01,2013-11-18 13:57:00,
2013-11-18 06:02:00,47.3,34.1,30.05,East,84,0.0,2.2,60,0.00,,,0.00,VWS V14.01,2013-11-18 14:02:00,
2013-11-18 06:08:00,47.3,34.1,30.02,East,87,0.0,0.0,60,0.00,,,0.00,VWS V14.01,2013-11-18 14:08:00,
2013-11-18 06:13:00,47.3,34.1,30.02,East,88,0.0,2.2,60,0.00,,,0.00,VWS V14.01,2013-11-18 14:13:00,
2013-11-18 06:18:00,47.3,34.1,30.02,East,88,0.0,0.0,60,0.00,,,0.00,VWS V14.01,2013-11-18 14:18:00,
2013-11-18 06:23:00,47.3,34.1,30.05,East,100,2.7,2.7,60,0.00,,,0.00,VWS V14.01,2013-11-18 14:23:00,
2013-11-18 06:28:00,47.3,34.1,30.05,East,100,2.2,2.7,60,0.00,,,0.00,VWS V14.01,2013-11-18 14:28:00,
2013-11-18 06:33:00,47.1,34.0,30.05,East,100,0.0,3.1,60,0.00,,,0.00,VWS V14.01,2013-11-18 14:33:00,
2013-11-18 06:38:00,46.9,33.8,30.05,East,100,2.2,2.7,60,0.00,,,0.00,VWS V14.01,2013-11-18 14:38:00,
2013-11-18 06:43:00,46.9,33.8,30.05,East,100,0.0,2.7,60,0.00,,,0.00,VWS V14.01,2013-11-18 14:43:00,
2013-11-18 06:48:00,46.9,33.8,30.05,East,100,0.0,0.0,60,0.00,,,0.00,VWS V14.01,2013-11-18 14:48:00,
2013-11-18 06:53:00,46.8,33.2,30.05,East,100,0.0,0.0,59,0.00,,,0.00,VWS V14.01,2013-11-18 14:53:00,
2013-11-18 06:58:00,46.8,33.6,30.05,East,100,0.0,0.0,60,0.00,,,0.00,VWS V14.01,2013-11-18 14:58:00,
2013-11-18 07:03:00,46.9,33.8,30.05,East,99,0.0,0.0,60,0.00,,,0.00,VWS V14.01,2013-11-18 15:03:00,
2013-11-18 07:08:00,46.9,33.8,30.05,East,100,0.0,0.0,60,0.00,,,0.00,VWS V14.01,2013-11-18 15:08:00,
2013-11-18 07:13:00,46.9,33.8,30.05,East,100,0.0,0.0,60,0.00,,,0.00,VWS V14.01,2013-11-18 15:13:00,
2013-11-18 07:18:00,47.3,34.5,30.05,SSW,199,2.7,3.1,61,0.00,,,0.00,VWS V14.01,2013-11-18 15:18:00,
2013-11-18 07:23:00,47.8,35.5,30.05,SSW,208,0.0,0.0,62,0.00,,,0.00,VWS V14.01,2013-11-18 15:23:00,
2013-11-18 07:28:00,48.2,35.4,30.05,SSW,208,0.0,0.0,61,0.00,,,0.00,VWS V14.01,2013-11-18 15:28:00,
2013-11-18 07:33:00,48.4,35.6,30.05,SSW,208,0.0,0.0,61,0.00,,,0.00,VWS V14.01,2013-11-18 15:33:00,
2013-11-18 07:38:00,48.6,36.2,30.05,SSW,204,0.0,0.0,62,0.00,,,0.00,VWS V14.01,2013-11-18 15:38:00,
2013-11-18 07:43:00,48.7,36.3,30.05,SE,139,0.0,0.0,62,0.00,,,0.00,VWS V14.01,2013-11-18 15:43:00,
2013-11-18 07:48:00,49.1,36.7,30.05,SE,137,0.0,2.7,62,0.00,,,0.00,VWS V14.01,2013-11-18 15:48:00,
2013-11-18 07:51:00,49.3,36.8,30.05,South,179,0.0,0.0,62,0.00,,,0.00,VWS V14.01,2013-11-18 15:51:00,
2013-11-18 07:56:00,49.5,37.0,30.05,SSE,160,0.0,0.0,62,0.00,,,0.00,VWS V14.01,2013-11-18 15:56:00,
2013-11-18 08:01:00,49.6,37.2,30.05,SSE,147,0.0,2.2,62,0.00,,,0.00,VWS V14.01,2013-11-18 16:01:00,
2013-11-18 08:06:00,49.8,37.3,30.05,ESE,123,2.7,3.1,62,0.00,,,0.00,VWS V14.01,2013-11-18 16:06:00,
2013-11-18 08:11:00,50.0,37.5,30.05,ESE,123,0.0,2.7,62,0.00,,,0.00,VWS V14.01,2013-11-18 16:11:00,
2013-11-18 08:16:00,50.2,37.7,30.05,ESE,113,0.0,0.0,62,0.00,,,0.00,VWS V14.01,2013-11-18 16:16:00,
2013-11-18 08:21:00,50.2,37.7,30.05,SE,144,2.2,2.7,62,0.00,,,0.00,VWS V14.01,2013-11-18 16:21:00,
2013-11-18 08:26:00,50.4,37.8,30.05,ESE,105,0.0,0.0,62,0.00,,,0.00,VWS V14.01,2013-11-18 16:26:00,
2013-11-18 08:31:00,50.5,38.0,30.05,SE,130,2.2,2.7,62,0.00,,,0.00,VWS V14.01,2013-11-18 16:31:00,
2013-11-18 08:36:00,50.7,38.2,30.05,North,353,0.0,0.0,62,0.00,,,0.00,VWS V14.01,2013-11-18 16:36:00,
2013-11-18 08:41:00,50.9,38.4,30.05,SE,128,0.0,0.0,62,0.00,,,0.00,VWS V14.01,2013-11-18 16:41:00,
2013-11-18 08:46:00,51.1,38.5,30.05,SW,218,2.7,3.1,62,0.00,,,0.00,VWS V14.01,2013-11-18 16:46:00,
2013-11-18 08:51:00,51.4,38.9,30.05,SW,224,4.0,4.0,62,0.00,,,0.00,VWS V14.01,2013-11-18 16:51:00,
2013-11-18 08:56:00,51.6,39.0,30.05,South,184,3.1,3.1,62,0.00,,,0.00,VWS V14.01,2013-11-18 16:56:00,
2013-11-18 09:01:00,51.8,38.8,30.05,SW,218,2.2,3.1,61,0.00,,,0.00,VWS V14.01,2013-11-18 17:01:00,
2013-11-18 09:06:00,51.8,38.4,30.05,WSW,255,3.6,4.0,60,0.00,,,0.00,VWS V14.01,2013-11-18 17:06:00,
2013-11-18 09:11:00,52.0,38.5,30.05,SW,220,2.7,3.1,60,0.00,,,0.00,VWS V14.01,2013-11-18 17:11:00,
2013-11-18 09:16:00,51.8,37.9,30.05,SSW,211,3.1,4.0,59,0.00,,,0.00,VWS V14.01,2013-11-18 17:16:00,
2013-11-18 09:21:00,52.0,37.7,30.08,South,184,2.2,4.0,58,0.00,,,0.00,VWS V14.01,2013-11-18 17:21:00,
2013-11-18 09:26:00,52.2,37.4,30.08,SW,236,0.0,3.6,57,0.00,,,0.00,VWS V14.01,2013-11-18 17:26:00,
2013-11-18 09:31:00,52.2,37.0,30.08,WSW,240,4.9,4.9,56,0.00,,,0.00,VWS V14.01,2013-11-18 17:31:00,
2013-11-18 09:36:00,52.2,35.6,30.08,SSW,209,0.0,0.0,53,0.00,,,0.00,VWS V14.01,2013-11-18 17:36:00,
2013-11-18 09:41:00,52.3,35.2,30.08,SW,217,2.7,3.1,52,0.00,,,0.00,VWS V14.01,2013-11-18 17:41:00,
2013-11-18 09:46:00,52.5,34.4,30.08,SSW,202,3.6,5.8,50,0.00,,,0.00,VWS V14.01,2013-11-18 17:46:00,
2013-11-18 09:51:00,52.5,33.4,30.08,SW,222,4.0,4.9,48,0.00,,,0.00,VWS V14.01,2013-11-18 17:51:00,
2013-11-18 09:56:00,52.5,31.8,30.08,WSW,241,4.9,6.7,45,0.00,,,0.00,VWS V14.01,2013-11-18 17:56:00,
2013-11-18 10:01:00,52.2,29.8,30.08,SSW,203,2.2,3.6,42,0.00,,,0.00,VWS V14.01,2013-11-18 18:01:00,
2013-11-18 10:06:00,52.2,29.8,30.08,SW,227,0.0,2.7,42,0.00,,,0.00,VWS V14.01,2013-11-18 18:06:00,
2013-11-18 10:11:00,52.3,30.0,30.08,SSW,213,3.1,4.0,42,0.00,,,0.00,VWS V14.01,2013-11-18 18:11:00,
2013-11-18 10:16:00,52.9,30.4,30.08,SSW,209,0.0,3.6,42,0.00,,,0.00,VWS V14.01,2013-11-18 18:16:00,
2013-11-18 10:21:00,53.1,29.4,30.08,ESE,104,2.7,2.7,40,0.00,,,0.00,VWS V14.01,2013-11-18 18:21:00,
2013-11-18 10:26:00,53.2,29.6,30.08,SSW,210,3.6,3.6,40,0.00,,,0.00,VWS V14.01,2013-11-18 18:26:00,
2013-11-18 10:31:00,53.4,28.5,30.08,SW,226,4.0,4.9,38,0.00,,,0.00,VWS V14.01,2013-11-18 18:31:00,
2013-11-18 10:36:00,53.4,28.5,30.08,SSW,204,2.7,4.0,38,0.00,,,0.00,VWS V14.01,2013-11-18 18:36:00,
2013-11-18 10:41:00,53.2,27.7,30.08,West,270,4.9,4.9,37,0.00,,,0.00,VWS V14.01,2013-11-18 18:41:00,
2013-11-18 10:46:00,53.1,27.5,30.08,SW,230,0.0,3.1,37,0.00,,,0.00,VWS V14.01,2013-11-18 18:46:00,
2013-11-18 10:51:00,53.2,27.7,30.08,SSW,212,3.1,3.6,37,0.00,,,0.00,VWS V14.01,2013-11-18 18:51:00,
2013-11-18 10:56:00,53.4,27.8,30.08,SSW,198,4.9,4.9,37,0.00,,,0.00,VWS V14.01,2013-11-18 18:56:00,
2013-11-18 11:01:00,53.8,27.5,30.08,SW,234,2.7,3.1,36,0.00,,,0.00,VWS V14.01,2013-11-18 19:01:00,
2013-11-18 11:06:00,54.0,27.6,30.08,SSW,200,0.0,4.0,36,0.00,,,0.00,VWS V14.01,2013-11-18 19:06:00,
2013-11-18 11:11:00,54.5,27.4,30.08,SW,217,2.7,2.7,35,0.00,,,0.00,VWS V14.01,2013-11-18 19:11:00,
2013-11-18 11:16:00,54.5,25.3,30.08,SSW,200,2.7,6.7,32,0.00,,,0.00,VWS V14.01,2013-11-18 19:16:00,
2013-11-18 11:21:00,54.9,24.8,30.08,SSW,207,3.6,3.6,31,0.00,,,0.00,VWS V14.01,2013-11-18 19:21:00,
2013-11-18 11:26:00,54.9,24.0,30.08,SW,227,2.2,4.0,30,0.00,,,0.00,VWS V14.01,2013-11-18 19:26:00,
2013-11-18 11:31:00,54.9,23.2,30.08,SW,220,3.1,4.0,29,0.00,,,0.00,VWS V14.01,2013-11-18 19:31:00,
2013-11-18 11:36:00,55.2,23.5,30.08,SW,230,3.6,4.0,29,0.00,,,0.00,VWS V14.01,2013-11-18 19:36:00,
2013-11-18 11:41:00,55.4,22.0,30.08,SSW,196,4.0,4.0,27,0.00,,,0.00,VWS V14.01,2013-11-18 19:41:00,
2013-11-18 11:46:00,55.9,22.5,30.08,SSW,197,4.0,4.9,27,0.00,,,0.00,VWS V14.01,2013-11-18 19:46:00,
2013-11-18 11:51:00,56.3,22.8,30.05,SSW,196,2.7,3.6,27,0.00,,,0.00,VWS V14.01,2013-11-18 19:51:00,
2013-11-18 11:56:00,56.3,21.9,30.05,SW,227,4.0,5.4,26,0.00,,,0.00,VWS V14.01,2013-11-18 19:56:00,
2013-11-18 12:01:00,55.6,20.3,30.05,WSW,241,4.9,4.9,25,0.00,,,0.00,VWS V14.01,2013-11-18 20:01:00,
2013-11-18 12:06:00,55.4,21.1,30.05,SW,217,2.2,5.4,26,0.00,,,0.00,VWS V14.01,2013-11-18 20:06:00,
2013-11-18 12:11:00,56.3,22.8,30.05,SSW,207,3.1,4.9,27,0.00,,,0.00,VWS V14.01,2013-11-18 20:11:00,
2013-11-18 12:16:00,56.8,22.3,30.05,SW,218,3.6,4.5,26,0.00,,,0.00,VWS V14.01,2013-11-18 20:16:00,
2013-11-18 12:21:00,56.8,21.4,30.05,WSW,238,2.7,3.1,25,0.00,,,0.00,VWS V14.01,2013-11-18 20:21:00,
2013-11-18 12:26:00,56.8,21.4,30.05,SW,219,2.7,4.9,25,0.00,,,0.00,VWS V14.01,2013-11-18 20:26:00,
2013-11-18 12:31:00,56.8,21.4,30.05,South,190,3.1,4.0,25,0.00,,,0.00,VWS V14.01,2013-11-18 20:31:00,
2013-11-18 12:36:00,57.2,21.7,30.05,South,185,4.0,4.5,25,0.00,,,0.00,VWS V14.01,2013-11-18 20:36:00,
2013-11-18 12:41:00,57.6,21.1,30.05,West,270,5.8,6.3,24,0.00,,,0.00,VWS V14.01,2013-11-18 20:41:00,
2013-11-18 12:46:00,57.6,19.0,30.05,SW,216,2.7,5.4,22,0.00,,,0.00,VWS V14.01,2013-11-18 20:46:00,
2013-11-18 12:51:00,57.6,19.0,30.05,South,185,3.6,5.4,22,0.00,,,0.00,VWS V14.01,2013-11-18 20:51:00,
2013-11-18 12:56:00,57.0,18.6,30.05,SSW,204,4.9,5.4,22,0.00,,,0.00,VWS V14.01,2013-11-18 20:56:00,
2013-11-18 13:01:00,56.5,18.1,30.05,WSW,251,4.0,5.8,22,0.00,,,0.00,VWS V14.01,2013-11-18 21:01:00,
2013-11-18 13:07:00,55.9,20.6,30.05,WSW,245,6.3,6.3,25,0.00,,,0.00,VWS V14.01,2013-11-18 21:07:00,
2013-11-18 13:12:00,55.8,21.4,30.05,SW,221,3.6,4.9,26,0.00,,,0.00,VWS V14.01,2013-11-18 21:12:00,
2013-11-18 13:17:00,55.6,22.1,30.05,SSW,210,6.3,6.3,27,0.00,,,0.00,VWS V14.01,2013-11-18 21:17:00,
2013-11-18 13:21:00,55.8,22.3,30.02,SSW,211,0.0,3.6,27,0.00,,,0.00,VWS V14.01,2013-11-18 21:21:00,
2013-11-18 13:26:00,55.9,21.6,30.02,SW,220,3.1,5.4,26,0.00,,,0.00,VWS V14.01,2013-11-18 21:26:00,
2013-11-18 13:31:00,55.6,20.3,30.02,West,259,5.4,6.3,25,0.00,,,0.00,VWS V14.01,2013-11-18 21:31:00,
2013-11-18 13:36:00,55.4,20.2,30.02,WNW,294,3.6,6.3,25,0.00,,,0.00,VWS V14.01,2013-11-18 21:36:00,
2013-11-18 13:41:00,55.2,20.0,30.02,WNW,287,2.7,4.9,25,0.00,,,0.00,VWS V14.01,2013-11-18 21:41:00,
2013-11-18 13:46:00,55.0,20.8,30.02,SSW,196,5.8,6.3,26,0.00,,,0.00,VWS V14.01,2013-11-18 21:46:00,
2013-11-18 13:51:00,55.0,20.8,30.02,SSW,212,5.8,5.8,26,0.00,,,0.00,VWS V14.01,2013-11-18 21:51:00,
2013-11-18 13:56:00,55.2,21.0,30.05,WSW,248,4.9,5.4,26,0.00,,,0.00,VWS V14.01,2013-11-18 21:56:00,
2013-11-18 14:01:00,55.2,21.0,30.05,SSW,205,3.1,5.4,26,0.00,,,0.00,VWS V14.01,2013-11-18 22:01:00,
2013-11-18 14:06:00,55.0,21.7,30.05,SW,226,6.3,7.6,27,0.00,,,0.00,VWS V14.01,2013-11-18 22:06:00,
2013-11-18 14:11:00,55.0,22.5,30.05,West,261,5.8,6.3,28,0.00,,,0.00,VWS V14.01,2013-11-18 22:11:00,
2013-11-18 14:16:00,55.2,24.4,30.05,WSW,252,3.6,4.0,30,0.00,,,0.00,VWS V14.01,2013-11-18 22:16:00,
2013-11-18 14:21:00,55.2,24.4,30.02,SW,216,4.9,6.3,30,0.00,,,0.00,VWS V14.01,2013-11-18 22:21:00,
2013-11-18 14:26:00,54.7,23.9,30.02,SW,219,7.2,7.2,30,0.00,,,0.00,VWS V14.01,2013-11-18 22:26:00,
2013-11-18 14:32:00,54.5,24.5,30.02,SSW,213,0.0,5.8,31,0.00,,,0.00,VWS V14.01,2013-11-18 22:32:00,
2013-11-18 14:37:00,54.5,24.5,30.02,SSW,204,3.6,4.0,31,0.00,,,0.00,VWS V14.01,2013-11-18 22:37:00,
2013-11-18 14:42:00,54.1,24.2,30.02,SW,222,2.7,5.4,31,0.00,,,0.00,VWS V14.01,2013-11-18 22:42:00,
2013-11-18 14:47:00,54.0,24.8,30.02,SSW,197,4.9,6.3,32,0.00,,,0.00,VWS V14.01,2013-11-18 22:47:00,
2013-11-18 14:52:00,53.8,24.6,30.02,SW,218,5.8,7.2,32,0.00,,,0.00,VWS V14.01,2013-11-18 22:52:00,
2013-11-18 14:57:00,54.1,26.4,30.02,WSW,248,4.9,4.9,34,0.00,,,0.00,VWS V14.01,2013-11-18 22:57:00,
2013-11-18 15:02:00,54.5,26.7,30.02,West,266,5.4,5.8,34,0.00,,,0.00,VWS V14.01,2013-11-18 23:02:00,
2013-11-18 15:07:00,54.7,26.2,30.02,SW,227,5.8,5.8,33,0.00,,,0.00,VWS V14.01,2013-11-18 23:07:00,
2013-11-18 15:12:00,54.5,23.7,30.02,SW,220,4.0,4.0,30,0.00,,,0.00,VWS V14.01,2013-11-18 23:12:00,
2013-11-18 15:17:00,54.5,23.7,30.02,SSW,207,6.3,6.3,30,0.00,,,0.00,VWS V14.01,2013-11-18 23:17:00,
2013-11-18 15:22:00,54.7,23.9,30.02,SSW,197,5.4,5.4,30,0.00,,,0.00,VWS V14.01,2013-11-18 23:22:00,
2013-11-18 15:27:00,55.2,23.5,30.02,SSW,207,6.3,7.2,29,0.00,,,0.00,VWS V14.01,2013-11-18 23:27:00,
2013-11-18 15:32:00,55.2,23.5,30.02,WSW,239,3.6,8.1,29,0.00,,,0.00,VWS V14.01,2013-11-18 23:32:00,
2013-11-18 15:37:00,54.9,23.2,30.02,NW,304,3.6,6.3,29,0.00,,,0.00,VWS V14.01,2013-11-18 23:37:00,
2013-11-18 15:42:00,54.5,24.5,30.02,SW,231,5.8,7.6,31,0.00,,,0.00,VWS V14.01,2013-11-18 23:42:00,
2013-11-18 15:46:00,54.0,26.2,30.02,SSW,207,3.6,8.7,34,0.00,,,0.00,VWS V14.01,2013-11-18 23:46:00,
2013-11-18 15:51:00,53.8,26.8,30.02,WSW,238,3.6,5.4,35,0.00,,,0.00,VWS V14.01,2013-11-18 23:51:00,
2013-11-18 15:56:00,53.8,26.8,30.02,West,273,4.9,5.8,35,0.00,,,0.00,VWS V14.01,2013-11-18 23:56:00,
2013-11-18 16:02:00,53.8,25.4,30.02,SSW,211,6.3,6.3,33,0.00,,,0.00,VWS V14.01,2013-11-19 00:02:00,
2013-11-18 16:07:00,54.1,24.2,30.02,WSW,247,5.8,5.8,31,0.00,,,0.00,VWS V14.01,2013-11-19 00:07:00,
2013-11-18 16:11:00,54.9,24.0,30.02,SW,226,3.6,3.6,30,0.00,,,0.00,VWS V14.01,2013-11-19 00:11:00,
2013-11-18 16:17:00,55.0,22.5,30.02,SSW,199,4.0,7.2,28,0.00,,,0.00,VWS V14.01,2013-11-19 00:17:00,
2013-11-18 16:22:00,54.5,20.3,30.02,SSW,206,8.1,8.3,26,0.00,,,0.00,VWS V14.01,2013-11-19 00:22:00,
2013-11-18 16:27:00,54.1,20.9,30.02,SW,216,5.4,6.3,27,0.00,,,0.00,VWS V14.01,2013-11-19 00:27:00,
2013-11-18 16:32:00,53.8,21.5,30.02,SSW,202,6.3,6.3,28,0.00,,,0.00,VWS V14.01,2013-11-19 00:32:00,
2013-11-18 16:37:00,53.4,22.0,30.02,South,174,3.1,5.8,29,0.00,,,0.00,VWS V14.01,2013-11-19 00:37:00,
2013-11-18 16:42:00,53.1,22.5,30.02,SW,228,5.4,5.8,30,0.00,,,0.00,VWS V14.01,2013-11-19 00:42:00,
2013-11-18 16:47:00,52.9,23.1,30.02,SSW,211,4.9,7.6,31,0.00,,,0.00,VWS V14.01,2013-11-19 00:47:00,
2013-11-18 16:52:00,52.7,23.7,30.05,WSW,244,4.9,5.4,32,0.00,,,0.00,VWS V14.01,2013-11-19 00:52:00,
2013-11-18 16:57:00,52.5,24.3,30.05,SSW,193,4.0,4.9,33,0.00,,,0.00,VWS V14.01,2013-11-19 00:57:00,
2013-11-18 17:02:00,52.3,24.8,30.05,SSW,209,3.6,6.3,34,0.00,,,0.00,VWS V14.01,2013-11-19 01:02:00,
2013-11-18 17:07:00,52.2,25.4,30.02,SW,219,2.7,2.7,35,0.00,,,0.00,VWS V14.01,2013-11-19 01:07:00,
2013-11-18 17:12:00,52.2,25.4,30.02,WSW,247,4.9,5.8,35,0.00,,,0.00,VWS V14.01,2013-11-19 01:12:00,
2013-11-18 17:17:00,52.0,25.9,30.02,WSW,239,4.0,4.0,36,0.00,,,0.00,VWS V14.01,2013-11-19 01:17:00,
2013-11-18 17:22:00,52.2,26.0,30.05,SSW,209,2.7,2.7,36,0.00,,,0.00,VWS V14.01,2013-11-19 01:22:00,
2013-11-18 17:27:00,52.2,26.0,30.05,South,186,3.6,3.6,36,0.00,,,0.00,VWS V14.01,2013-11-19 01:27:00,
2013-11-18 17:32:00,52.2,26.7,30.05,SSW,213,3.1,3.1,37,0.00,,,0.00,VWS V14.01,2013-11-19 01:32:00,
2013-11-18 17:37:00,52.2,26.7,30.05,SW,219,4.0,4.0,37,0.00,,,0.00,VWS V14.01,2013-11-19 01:37:00,
2013-11-18 17:42:00,52.2,26.7,30.05,SW,218,3.1,3.6,37,0.00,,,0.00,VWS V14.01,2013-11-19 01:42:00,
2013-11-18 17:44:00,52.0,26.5,30.05,SW,224,3.1,3.6,37,0.00,,,0.00,VWS V14.01,2013-11-19 01:44:00,
2013-11-18 17:49:00,52.0,26.5,30.05,SW,222,5.4,5.4,37,0.00,,,0.00,VWS V14.01,2013-11-19 01:49:00,
2013-11-18 17:54:00,51.8,26.4,30.02,SW,215,3.6,4.9,37,0.00,,,0.00,VWS V14.01,2013-11-19 01:54:00,
2013-11-18 17:59:00,51.8,26.4,30.02,South,191,2.7,3.1,37,0.00,,,0.00,VWS V14.01,2013-11-19 01:59:00,
2013-11-18 18:04:00,51.6,26.9,30.02,SW,225,4.0,5.4,38,0.00,,,0.00,VWS V14.01,2013-11-19 02:04:00,
2013-11-18 18:09:00,51.6,26.9,30.05,SW,231,4.0,4.9,38,0.00,,,0.00,VWS V14.01,2013-11-19 02:09:00,
2013-11-18 18:14:00,51.6,27.5,30.05,SW,222,5.4,5.4,39,0.00,,,0.00,VWS V14.01,2013-11-19 02:14:00,
2013-11-18 18:19:00,51.6,27.5,30.05,SSW,206,4.0,4.0,39,0.00,,,0.00,VWS V14.01,2013-11-19 02:19:00,
2013-11-18 18:24:00,51.6,28.1,30.05,WSW,258,3.6,4.9,40,0.00,,,0.00,VWS V14.01,2013-11-19 02:24:00,
2013-11-18 18:29:00,51.6,28.1,30.05,SSW,210,3.1,5.4,40,0.00,,,0.00,VWS V14.01,2013-11-19 02:29:00,
2013-11-18 18:34:00,51.6,28.7,30.05,SW,218,2.2,5.4,41,0.00,,,0.00,VWS V14.01,2013-11-19 02:34:00,
2013-11-18 18:39:00,51.6,28.7,30.05,SSW,209,4.0,4.0,41,0.00,,,0.00,VWS V14.01,2013-11-19 02:39:00,
2013-11-18 18:44:00,51.6,29.3,30.05,SW,219,4.0,4.0,42,0.00,,,0.00,VWS V14.01,2013-11-19 02:44:00,
2013-11-18 18:49:00,51.8,30.0,30.05,SW,227,3.6,3.6,43,0.00,,,0.00,VWS V14.01,2013-11-19 02:49:00,
2013-11-18 18:54:00,51.8,30.0,30.05,SW,216,2.2,2.2,43,0.00,,,0.00,VWS V14.01,2013-11-19 02:54:00,
2013-11-18 18:59:00,51.8,30.6,30.05,SSW,213,3.6,3.6,44,0.00,,,0.00,VWS V14.01,2013-11-19 02:59:00,
2013-11-18 19:04:00,52.0,30.8,30.05,SW,216,3.6,4.0,44,0.00,,,0.00,VWS V14.01,2013-11-19 03:04:00,
2013-11-18 19:09:00,52.0,30.8,30.05,SW,216,2.2,4.9,44,0.00,,,0.00,VWS V14.01,2013-11-19 03:09:00,
2013-11-18 19:14:00,52.0,31.3,30.05,South,177,2.2,3.6,45,0.00,,,0.00,VWS V14.01,2013-11-19 03:14:00,
2013-11-18 19:19:00,52.0,31.9,30.05,West,259,3.6,5.8,46,0.00,,,0.00,VWS V14.01,2013-11-19 03:19:00,
2013-11-18 19:24:00,52.0,31.9,30.05,SSW,207,0.0,4.0,46,0.00,,,0.00,VWS V14.01,2013-11-19 03:24:00,
2013-11-18 19:29:00,52.0,31.9,30.05,SSW,213,0.0,2.2,46,0.00,,,0.00,VWS V14.01,2013-11-19 03:29:00,
2013-11-18 19:34:00,51.8,31.7,30.05,SW,223,2.2,3.6,46,0.00,,,0.00,VWS V14.01,2013-11-19 03:34:00,
2013-11-18 19:39:00,51.8,31.7,30.05,WSW,249,3.1,4.0,46,0.00,,,0.00,VWS V14.01,2013-11-19 03:39:00,
2013-11-18 19:44:00,51.8,31.7,30.05,WSW,242,0.0,0.0,46,0.00,,,0.00,VWS V14.01,2013-11-19 03:44:00,
2013-11-18 19:49:00,51.6,32.1,30.05,SW,219,0.0,0.0,47,0.00,,,0.00,VWS V14.01,2013-11-19 03:49:00,
2013-11-18 19:54:00,51.6,32.1,30.05,SW,227,0.0,2.2,47,0.00,,,0.00,VWS V14.01,2013-11-19 03:54:00,
2013-11-18 19:59:00,51.6,32.1,30.05,SSW,209,2.2,4.9,47,0.00,,,0.00,VWS V14.01,2013-11-19 03:59:00,
2013-11-18 20:04:00,51.6,32.1,30.05,SW,227,0.0,3.1,47,0.00,,,0.00,VWS V14.01,2013-11-19 04:04:00,
2013-11-18 20:07:00,51.6,32.1,30.05,SSW,210,0.0,0.0,47,0.00,,,0.00,VWS V14.01,2013-11-19 04:07:00,
2013-11-18 20:12:00,51.4,31.9,30.05,SSW,212,2.7,2.7,47,0.00,,,0.00,VWS V14.01,2013-11-19 04:12:00,
2013-11-18 20:17:00,51.4,31.9,30.05,SW,231,0.0,2.7,47,0.00,,,0.00,VWS V14.01,2013-11-19 04:17:00,
2013-11-18 20:22:00,51.4,31.9,30.05,SW,235,0.0,0.0,47,0.00,,,0.00,VWS V14.01,2013-11-19 04:22:00,
2013-11-18 20:27:00,51.4,32.4,30.05,SSW,208,0.0,0.0,48,0.00,,,0.00,VWS V14.01,2013-11-19 04:27:00,
2013-11-18 20:32:00,51.4,32.4,30.05,SW,216,0.0,0.0,48,0.00,,,0.00,VWS V14.01,2013-11-19 04:32:00,
2013-11-18 20:37:00,51.4,32.4,30.05,SSW,212,0.0,0.0,48,0.00,,,0.00,VWS V14.01,2013-11-19 04:37:00,
2013-11-18 20:42:00,51.4,32.4,30.05,SSW,212,0.0,0.0,48,0.00,,,0.00,VWS V14.01,2013-11-19 04:42:00,
2013-11-18 20:47:00,51.6,32.6,30.05,SW,222,2.2,4.0,48,0.00,,,0.00,VWS V14.01,2013-11-19 04:47:00,
2013-11-18 20:52:00,51.6,32.6,30.05,WSW,241,0.0,3.1,48,0.00,,,0.00,VWS V14.01,2013-11-19 04:52:00,
2013-11-18 20:57:00,51.6,32.1,30.05,SW,214,0.0,0.0,47,0.00,,,0.00,VWS V14.01,2013-11-19 04:57:00,
2013-11-18 21:01:00,51.8,32.2,30.05,SW,224,2.2,3.6,47,0.00,,,0.00,VWS V14.01,2013-11-19 05:01:00,
2013-11-18 21:06:00,51.8,32.2,30.05,WSW,246,0.0,3.6,47,0.00,,,0.00,VWS V14.01,2013-11-19 05:06:00,
2013-11-18 21:11:00,52.0,31.9,30.05,SW,215,2.7,2.7,46,0.00,,,0.00,VWS V14.01,2013-11-19 05:11:00,
2013-11-18 21:16:00,52.0,31.9,30.05,SSW,198,0.0,0.0,46,0.00,,,0.00,VWS V14.01,2013-11-19 05:16:00,
2013-11-18 21:21:00,52.0,31.9,30.05,South,188,0.0,0.0,46,0.00,,,0.00,VWS V14.01,2013-11-19 05:21:00,
2013-11-18 21:26:00,51.8,31.1,30.05,SSW,198,0.0,0.0,45,0.00,,,0.00,VWS V14.01,2013-11-19 05:26:00,
2013-11-18 21:31:00,51.8,31.1,30.05,SSW,211,0.0,0.0,45,0.00,,,0.00,VWS V14.01,2013-11-19 05:31:00,
2013-11-18 21:36:00,51.6,31.0,30.05,SW,219,2.7,2.7,45,0.00,,,0.00,VWS V14.01,2013-11-19 05:36:00,
2013-11-18 21:41:00,51.6,31.0,30.05,SSW,212,0.0,0.0,45,0.00,,,0.00,VWS V14.01,2013-11-19 05:41:00,
2013-11-18 21:46:00,51.6,30.4,30.05,SW,221,0.0,0.0,44,0.00,,,0.00,VWS V14.01,2013-11-19 05:46:00,
2013-11-18 21:51:00,51.6,30.4,30.05,SSE,156,0.0,0.0,44,0.00,,,0.00,VWS V14.01,2013-11-19 05:51:00,
2013-11-18 21:56:00,51.6,30.4,30.05,SSE,157,0.0,0.0,44,0.00,,,0.00,VWS V14.01,2013-11-19 05:56:00,
2013-11-18 22:01:00,51.6,30.4,30.05,SSW,207,0.0,2.2,44,0.00,,,0.00,VWS V14.01,2013-11-19 06:01:00,
2013-11-18 22:06:00,51.8,30.0,30.05,SSW,212,3.1,3.1,43,0.00,,,0.00,VWS V14.01,2013-11-19 06:06:00,
2013-11-18 22:11:00,51.8,30.0,30.05,SW,236,3.6,3.6,43,0.00,,,0.00,VWS V14.01,2013-11-19 06:11:00,
2013-11-18 22:16:00,51.8,30.0,30.05,SW,231,2.7,3.6,43,0.00,,,0.00,VWS V14.01,2013-11-19 06:16:00,
2013-11-18 22:21:00,51.8,29.5,30.05,SSW,201,0.0,2.7,42,0.00,,,0.00,VWS V14.01,2013-11-19 06:21:00,
2013-11-18 22:26:00,51.6,29.9,30.05,SW,219,0.0,0.0,43,0.00,,,0.00,VWS V14.01,2013-11-19 06:26:00,
2013-11-18 22:31:00,51.6,29.9,30.05,SW,224,3.1,3.1,43,0.00,,,0.00,VWS V14.01,2013-11-19 06:31:00,
2013-11-18 22:36:00,51.6,29.3,30.05,SW,231,2.2,2.7,42,0.00,,,0.00,VWS V14.01,2013-11-19 06:36:00,
2013-11-18 22:41:00,51.4,29.1,30.02,SSW,204,3.6,3.6,42,0.00,,,0.00,VWS V14.01,2013-11-19 06:41:00,
2013-11-18 22:46:00,51.4,29.1,30.02,SW,233,0.0,0.0,42,0.00,,,0.00,VWS V14.01,2013-11-19 06:46:00,
2013-11-18 22:51:00,51.4,29.1,30.05,SW,232,3.1,3.1,42,0.00,,,0.00,VWS V14.01,2013-11-19 06:51:00,
2013-11-18 22:56:00,51.4,29.1,30.05,SSW,209,0.0,2.7,42,0.00,,,0.00,VWS V14.01,2013-11-19 06:56:00,
2013-11-18 23:01:00,51.4,29.1,30.05,SSW,212,0.0,2.2,42,0.00,,,0.00,VWS V14.01,2013-11-19 07:01:00,
2013-11-18 23:06:00,51.4,29.7,30.05,SSW,211,2.2,2.2,43,0.00,,,0.00,VWS V14.01,2013-11-19 07:06:00,
2013-11-18 23:11:00,51.4,29.7,30.05,SW,217,0.0,3.6,43,0.00,,,0.00,VWS V14.01,2013-11-19 07:11:00,
2013-11-18 23:16:00,51.4,29.7,30.05,SSW,210,0.0,0.0,43,0.00,,,0.00,VWS V14.01,2013-11-19 07:16:00,
2013-11-18 23:21:00,51.4,29.7,30.05,SSW,198,0.0,0.0,43,0.00,,,0.00,VWS V14.01,2013-11-19 07:21:00,
2013-11-18 23:26:00,51.4,29.7,30.05,SE,130,0.0,2.7,43,0.00,,,0.00,VWS V14.01,2013-11-19 07:26:00,
2013-11-18 23:31:00,51.4,29.7,30.05,SW,221,0.0,0.0,43,0.00,,,0.00,VWS V14.01,2013-11-19 07:31:00,
2013-11-18 23:36:00,51.4,29.7,30.05,SSW,206,0.0,0.0,43,0.00,,,0.00,VWS V14.01,2013-11-19 07:36:00,
2013-11-18 23:41:00,51.4,29.7,30.05,South,172,3.6,3.6,43,0.00,,,0.00,VWS V14.01,2013-11-19 07:41:00,
2013-11-18 23:46:00,51.4,29.7,30.05,SE,132,0.0,0.0,43,0.00,,,0.00,VWS V14.01,2013-11-19 07:46:00,
2013-11-18 23:51:00,51.4,29.7,30.05,SW,216,0.0,2.7,43,0.00,,,0.00,VWS V14.01,2013-11-19 07:51:00,
2013-11-18 23:56:00,51.4,29.7,30.02,SW,215,0.0,2.2,43,0.00,,,0.00,VWS V14.01,2013-11-19 07:56:00,